Date,TemperatureHighF,TemperatureAvgF,TemperatureLowF,DewpointHighF,DewpointAvgF,DewpointLowF,HumidityHigh,HumidityAvg,HumidityLow,PressureMaxIn,PressureMinIn,WindSpeedMaxMPH,WindSpeedAvgMPH,GustSpeedMaxMPH,PrecipitationSumIn
2013-9-1,84.4,73.4,66.4,70.7,66.5,61.9,98,81,54,29.38,29.23,3,0,4,0.12
2013-9-2,70.3,68.0,66.2,68.5,67.1,65.4,98,97,94,29.35,29.23,1,0,3,3.86
2013-9-3,77.2,68.1,59.0,69.1,64.5,56.8,98,89,67,29.26,29.14,0,0,0,0.04
2013-9-4,80.1,64.5,53.4,63.4,54.5,46.7,98,74,33,29.35,29.23,5,0,5,0.00
2013-9-5,67.3,58.8,44.4,57.7,44.2,33.0,92,62,33,29.59,29.32,8,0,10,0.00
2013-9-6,70.2,51.9,37.0,46.2,40.0,33.5,91,67,36,29.71,29.50,4,0,6,0.00
2013-9-7,71.2,57.4,45.5,57.0,50.1,41.3,92,78,51,29.50,29.26,1,0,3,0.00
2013-9-8,63.5,56.9,44.1,58.3,45.5,33.0,97,69,37,29.56,29.20,12,1,17,0.21
2013-9-9,69.4,52.0,36.5,47.4,41.0,32.7,90,69,40,29.68,29.53,7,1,7,0.00
2013-9-10,65.7,55.9,44.1,59.4,51.6,40.9,93,86,74,29.59,29.50,3,0,3,0.04
2013-9-11,90.1,70.8,60.3,74.4,64.4,58.2,98,83,45,29.53,29.32,8,1,12,0.37
2013-9-12,80.1,70.1,65.3,72.5,67.3,64.4,98,91,72,29.38,29.12,6,0,8,0.58
2013-9-13,66.0,63.0,56.3,65.4,60.0,50.3,98,90,72,29.23,29.09,7,1,8,0.25
2013-9-14,65.7,57.5,47.1,56.1,49.6,43.3,94,77,49,29.50,29.20,8,1,9,0.21
2013-9-15,70.3,53.8,39.7,51.5,46.0,37.9,97,78,44,29.59,29.44,4,0,6,0.00
2013-9-16,62.4,54.0,44.6,57.6,43.4,26.8,96,70,41,29.74,29.44,13,1,15,0.00
2013-9-17,65.7,46.7,36.3,40.0,34.1,28.1,81,63,35,29.88,29.74,6,1,6,0.00
2013-9-18,72.1,50.9,34.9,48.7,40.3,31.4,93,71,36,29.79,29.59,4,1,5,0.00
2013-9-19,75.6,54.6,38.5,52.8,45.0,35.2,94,73,41,29.62,29.47,4,1,6,0.00
2013-9-20,75.9,56.7,41.5,56.2,47.3,38.5,95,74,43,29.62,29.47,6,1,6,0.00
2013-9-21,72.0,57.8,45.1,60.1,52.3,42.0,95,83,52,29.50,29.20,6,1,8,0.04
2013-9-22,72.5,62.6,51.3,64.4,52.7,35.4,98,73,40,29.26,29.06,8,2,8,1.12
2013-9-23,53.2,49.3,46.4,37.9,33.4,30.1,64,54,47,29.44,29.26,12,2,14,0.00
2013-9-24,60.1,50.0,42.3,38.5,35.5,32.6,80,58,39,29.44,29.32,10,2,13,0.00
2013-9-25,61.5,48.8,40.5,48.6,39.5,35.4,91,72,47,29.50,29.38,9,1,13,0.04
2013-9-26,65.8,50.1,36.5,48.4,40.7,33.5,95,73,44,29.68,29.50,6,1,9,0.00
2013-9-27,71.6,57.0,46.6,52.5,47.3,42.2,88,72,42,29.76,29.65,6,0,6,0.00
2013-9-28,72.3,54.1,41.0,56.0,44.7,38.2,96,74,41,29.85,29.74,5,0,6,0.00
2013-9-29,70.3,52.6,40.5,53.4,44.1,37.8,94,75,43,29.76,29.59,6,0,6,0.00
2013-9-30,63.7,46.8,39.2,51.6,42.4,36.0,94,85,58,29.62,29.47,4,0,5,0.00